sensor_id;sensor_type;location;lat;lon;timestamp;P1;durP1;ratioP1;P2;durP2;ratioP2
6378;SDS011;3222;48.858;10.128;2022-07-12T00:01:54;0.83;;;0.83;;
6378;SDS011;3222;48.858;10.128;2022-07-12T00:04:20;1.00;;;1.00;;
6378;SDS011;3222;48.858;10.128;2022-07-12T00:06:45;1.00;;;1.00;;
6378;SDS011;3222;48.858;10.128;2022-07-12T00:09:11;1.00;;;1.00;;
6378;SDS011;3222;48.858;10.128;2022-07-12T00:11:37;1.10;;;1.00;;
6378;SDS011;3222;48.858;10.128;2022-07-12T00:14:03;0.90;;;0.90;;
6378;SDS011;3222;48.858;10.128;2022-07-12T00:16:29;0.80;;;0.80;;
6378;SDS011;3222;48.858;10.128;2022-07-12T00:18:55;0.80;;;0.80;;
6378;SDS011;3222;48.858;10.128;2022-07-12T00:21:21;0.90;;;0.90;;
6378;SDS011;3222;48.858;10.128;2022-07-12T00:23:47;1.73;;;1.00;;
6378;SDS011;3222;48.858;10.128;2022-07-12T00:26:12;0.80;;;0.80;;
6378;SDS011;3222;48.858;10.128;2022-07-12T00:28:38;0.80;;;0.80;;
6378;SDS011;3222;48.858;10.128;2022-07-12T00:31:04;0.90;;;0.90;;
6378;SDS011;3222;48.858;10.128;2022-07-12T00:33:30;1.10;;;0.90;;
6378;SDS011;3222;48.858;10.128;2022-07-12T00:35:56;0.80;;;0.80;;
6378;SDS011;3222;48.858;10.128;2022-07-12T00:38:21;0.80;;;0.80;;
6378;SDS011;3222;48.858;10.128;2022-07-12T00:40:47;1.93;;;0.90;;
6378;SDS011;3222;48.858;10.128;2022-07-12T00:43:14;1.00;;;1.00;;
6378;SDS011;3222;48.858;10.128;2022-07-12T00:45:40;0.90;;;0.90;;
6378;SDS011;3222;48.858;10.128;2022-07-12T00:48:06;0.93;;;0.93;;
6378;SDS011;3222;48.858;10.128;2022-07-12T00:50:33;0.80;;;0.80;;
6378;SDS011;3222;48.858;10.128;2022-07-12T00:52:59;1.00;;;1.00;;
6378;SDS011;3222;48.858;10.128;2022-07-12T00:55:24;0.70;;;0.70;;
6378;SDS011;3222;48.858;10.128;2022-07-12T00:57:50;0.60;;;0.60;;
6378;SDS011;3222;48.858;10.128;2022-07-12T01:00:20;0.70;;;0.70;;
6378;SDS011;3222;48.858;10.128;2022-07-12T01:02:49;0.73;;;0.73;;
6378;SDS011;3222;48.858;10.128;2022-07-12T01:05:15;1.50;;;0.87;;
6378;SDS011;3222;48.858;10.128;2022-07-12T01:07:41;0.80;;;0.80;;
6378;SDS011;3222;48.858;10.128;2022-07-12T01:10:09;7.70;;;1.10;;
6378;SDS011;3222;48.858;10.128;2022-07-12T01:12:35;0.60;;;0.60;;
6378;SDS011;3222;48.858;10.128;2022-07-12T01:15:01;0.67;;;0.60;;
6378;SDS011;3222;48.858;10.128;2022-07-12T01:17:29;0.50;;;0.50;;
6378;SDS011;3222;48.858;10.128;2022-07-12T01:19:56;0.60;;;0.60;;
6378;SDS011;3222;48.858;10.128;2022-07-12T01:22:30;0.50;;;0.50;;
6378;SDS011;3222;48.858;10.128;2022-07-12T01:24:58;0.60;;;0.60;;
6378;SDS011;3222;48.858;10.128;2022-07-12T01:27:26;0.80;;;0.60;;
6378;SDS011;3222;48.858;10.128;2022-07-12T01:29:52;0.50;;;0.50;;
6378;SDS011;3222;48.858;10.128;2022-07-12T01:32:18;0.60;;;0.60;;
6378;SDS011;3222;48.858;10.128;2022-07-12T01:34:50;0.50;;;0.50;;
6378;SDS011;3222;48.858;10.128;2022-07-12T01:37:20;0.60;;;0.60;;
6378;SDS011;3222;48.858;10.128;2022-07-12T01:39:47;0.53;;;0.53;;
6378;SDS011;3222;48.858;10.128;2022-07-12T01:42:14;0.50;;;0.50;;
6378;SDS011;3222;48.858;10.128;2022-07-12T01:44:40;0.60;;;0.60;;
6378;SDS011;3222;48.858;10.128;2022-07-12T01:47:06;0.60;;;0.60;;
6378;SDS011;3222;48.858;10.128;2022-07-12T01:49:32;0.50;;;0.50;;
6378;SDS011;3222;48.858;10.128;2022-07-12T01:51:58;0.50;;;0.50;;
6378;SDS011;3222;48.858;10.128;2022-07-12T01:54:24;0.60;;;0.60;;
6378;SDS011;3222;48.858;10.128;2022-07-12T01:56:54;0.60;;;0.60;;
6378;SDS011;3222;48.858;10.128;2022-07-12T01:59:20;0.83;;;0.60;;
6378;SDS011;3222;48.858;10.128;2022-07-12T02:01:46;1.00;;;1.00;;
6378;SDS011;3222;48.858;10.128;2022-07-12T02:04:16;1.07;;;1.07;;
6378;SDS011;3222;48.858;10.128;2022-07-12T02:06:43;1.90;;;1.80;;
6378;SDS011;3222;48.858;10.128;2022-07-12T02:09:10;2.47;;;1.80;;
6378;SDS011;3222;48.858;10.128;2022-07-12T02:11:36;1.60;;;1.50;;
6378;SDS011;3222;48.858;10.128;2022-07-12T02:14:02;1.70;;;1.60;;
6378;SDS011;3222;48.858;10.128;2022-07-12T02:16:28;1.70;;;1.60;;
6378;SDS011;3222;48.858;10.128;2022-07-12T02:18:55;1.50;;;1.40;;
6378;SDS011;3222;48.858;10.128;2022-07-12T02:21:20;1.70;;;1.60;;
6378;SDS011;3222;48.858;10.128;2022-07-12T02:23:46;1.80;;;1.70;;
6378;SDS011;3222;48.858;10.128;2022-07-12T02:26:12;1.73;;;1.60;;
6378;SDS011;3222;48.858;10.128;2022-07-12T02:28:37;1.50;;;1.40;;
6378;SDS011;3222;48.858;10.128;2022-07-12T02:31:03;2.37;;;1.70;;
6378;SDS011;3222;48.858;10.128;2022-07-12T02:33:29;1.30;;;1.30;;
6378;SDS011;3222;48.858;10.128;2022-07-12T02:35:54;2.13;;;1.40;;
6378;SDS011;3222;48.858;10.128;2022-07-12T02:38:20;1.70;;;1.60;;
6378;SDS011;3222;48.858;10.128;2022-07-12T02:40:46;2.50;;;1.60;;
6378;SDS011;3222;48.858;10.128;2022-07-12T02:43:18;2.50;;;1.63;;
6378;SDS011;3222;48.858;10.128;2022-07-12T02:45:49;1.87;;;1.77;;
6378;SDS011;3222;48.858;10.128;2022-07-12T02:48:14;2.33;;;1.63;;
6378;SDS011;3222;48.858;10.128;2022-07-12T02:50:40;1.93;;;1.60;;
6378;SDS011;3222;48.858;10.128;2022-07-12T02:53:06;2.40;;;1.90;;
6378;SDS011;3222;48.858;10.128;2022-07-12T02:55:33;1.73;;;1.63;;
6378;SDS011;3222;48.858;10.128;2022-07-12T02:57:59;2.13;;;1.93;;
6378;SDS011;3222;48.858;10.128;2022-07-12T03:00:25;2.37;;;2.17;;
6378;SDS011;3222;48.858;10.128;2022-07-12T03:02:51;2.60;;;2.40;;
6378;SDS011;3222;48.858;10.128;2022-07-12T03:05:17;2.73;;;2.53;;
6378;SDS011;3222;48.858;10.128;2022-07-12T03:07:42;2.23;;;2.07;;
6378;SDS011;3222;48.858;10.128;2022-07-12T03:10:08;1.93;;;1.80;;
6378;SDS011;3222;48.858;10.128;2022-07-12T03:12:34;4.20;;;1.67;;
6378;SDS011;3222;48.858;10.128;2022-07-12T03:15:00;2.00;;;1.90;;
6378;SDS011;3222;48.858;10.128;2022-07-12T03:17:26;1.20;;;1.10;;
6378;SDS011;3222;48.858;10.128;2022-07-12T03:19:52;1.10;;;1.10;;
6378;SDS011;3222;48.858;10.128;2022-07-12T03:22:17;1.10;;;1.10;;
6378;SDS011;3222;48.858;10.128;2022-07-12T03:24:43;1.03;;;1.00;;
6378;SDS011;3222;48.858;10.128;2022-07-12T03:27:09;1.43;;;1.03;;
6378;SDS011;3222;48.858;10.128;2022-07-12T03:29:35;0.93;;;0.93;;
6378;SDS011;3222;48.858;10.128;2022-07-12T03:32:01;0.93;;;0.83;;
6378;SDS011;3222;48.858;10.128;2022-07-12T03:34:27;0.90;;;0.90;;
6378;SDS011;3222;48.858;10.128;2022-07-12T03:36:53;0.97;;;0.97;;
6378;SDS011;3222;48.858;10.128;2022-07-12T03:39:19;0.90;;;0.90;;
6378;SDS011;3222;48.858;10.128;2022-07-12T03:41:44;1.37;;;0.80;;
6378;SDS011;3222;48.858;10.128;2022-07-12T03:44:10;0.90;;;0.90;;
6378;SDS011;3222;48.858;10.128;2022-07-12T03:46:36;1.00;;;0.90;;
6378;SDS011;3222;48.858;10.128;2022-07-12T03:49:01;0.80;;;0.80;;
6378;SDS011;3222;48.858;10.128;2022-07-12T03:51:27;0.80;;;0.80;;
6378;SDS011;3222;48.858;10.128;2022-07-12T03:53:53;1.57;;;0.97;;
6378;SDS011;3222;48.858;10.128;2022-07-12T03:56:18;1.00;;;1.00;;
6378;SDS011;3222;48.858;10.128;2022-07-12T03:59:03;0.80;;;0.80;;
6378;SDS011;3222;48.858;10.128;2022-07-12T04:01:29;0.90;;;0.90;;
6378;SDS011;3222;48.858;10.128;2022-07-12T04:03:55;1.33;;;1.10;;
6378;SDS011;3222;48.858;10.128;2022-07-12T04:06:21;1.27;;;1.00;;
6378;SDS011;3222;48.858;10.128;2022-07-12T04:08:47;0.70;;;0.70;;
6378;SDS011;3222;48.858;10.128;2022-07-12T04:11:12;0.90;;;0.90;;
6378;SDS011;3222;48.858;10.128;2022-07-12T04:13:38;1.00;;;0.90;;
6378;SDS011;3222;48.858;10.128;2022-07-12T04:16:04;0.60;;;0.60;;
6378;SDS011;3222;48.858;10.128;2022-07-12T04:18:30;0.80;;;0.80;;
6378;SDS011;3222;48.858;10.128;2022-07-12T04:20:56;0.80;;;0.80;;
6378;SDS011;3222;48.858;10.128;2022-07-12T04:23:22;0.80;;;0.80;;
6378;SDS011;3222;48.858;10.128;2022-07-12T04:25:48;0.70;;;0.70;;
6378;SDS011;3222;48.858;10.128;2022-07-12T04:28:13;0.77;;;0.77;;
6378;SDS011;3222;48.858;10.128;2022-07-12T04:30:39;0.80;;;0.80;;
6378;SDS011;3222;48.858;10.128;2022-07-12T04:33:07;0.83;;;0.83;;
6378;SDS011;3222;48.858;10.128;2022-07-12T04:35:33;0.80;;;0.80;;
6378;SDS011;3222;48.858;10.128;2022-07-12T04:37:59;0.60;;;0.60;;
6378;SDS011;3222;48.858;10.128;2022-07-12T04:40:25;0.80;;;0.80;;
6378;SDS011;3222;48.858;10.128;2022-07-12T04:42:51;0.80;;;0.80;;
6378;SDS011;3222;48.858;10.128;2022-07-12T04:45:16;0.80;;;0.80;;
6378;SDS011;3222;48.858;10.128;2022-07-12T04:47:42;0.70;;;0.70;;
6378;SDS011;3222;48.858;10.128;2022-07-12T04:50:08;0.60;;;0.60;;
6378;SDS011;3222;48.858;10.128;2022-07-12T04:52:34;0.60;;;0.60;;
6378;SDS011;3222;48.858;10.128;2022-07-12T04:55:00;1.70;;;0.73;;
6378;SDS011;3222;48.858;10.128;2022-07-12T04:57:26;0.57;;;0.57;;
6378;SDS011;3222;48.858;10.128;2022-07-12T04:59:52;0.60;;;0.60;;
6378;SDS011;3222;48.858;10.128;2022-07-12T05:02:18;0.97;;;0.70;;
6378;SDS011;3222;48.858;10.128;2022-07-12T05:04:44;0.63;;;0.63;;
6378;SDS011;3222;48.858;10.128;2022-07-12T05:07:10;0.60;;;0.60;;
6378;SDS011;3222;48.858;10.128;2022-07-12T05:09:35;0.60;;;0.60;;
6378;SDS011;3222;48.858;10.128;2022-07-12T05:12:01;0.50;;;0.50;;
6378;SDS011;3222;48.858;10.128;2022-07-12T05:14:27;0.97;;;0.60;;
6378;SDS011;3222;48.858;10.128;2022-07-12T05:16:52;0.70;;;0.70;;
6378;SDS011;3222;48.858;10.128;2022-07-12T05:19:18;0.50;;;0.50;;
6378;SDS011;3222;48.858;10.128;2022-07-12T05:21:44;0.60;;;0.60;;
6378;SDS011;3222;48.858;10.128;2022-07-12T05:24:10;0.60;;;0.60;;
6378;SDS011;3222;48.858;10.128;2022-07-12T05:26:36;1.43;;;1.33;;
6378;SDS011;3222;48.858;10.128;2022-07-12T05:29:01;0.57;;;0.57;;
6378;SDS011;3222;48.858;10.128;2022-07-12T05:31:27;0.60;;;0.60;;
6378;SDS011;3222;48.858;10.128;2022-07-12T05:33:53;0.70;;;0.70;;
6378;SDS011;3222;48.858;10.128;2022-07-12T05:36:19;0.70;;;0.70;;
6378;SDS011;3222;48.858;10.128;2022-07-12T05:38:45;1.90;;;0.67;;
6378;SDS011;3222;48.858;10.128;2022-07-12T05:41:11;0.60;;;0.60;;
6378;SDS011;3222;48.858;10.128;2022-07-12T05:43:37;0.67;;;0.60;;
6378;SDS011;3222;48.858;10.128;2022-07-12T05:46:03;1.57;;;0.80;;
6378;SDS011;3222;48.858;10.128;2022-07-12T05:48:30;0.70;;;0.70;;
6378;SDS011;3222;48.858;10.128;2022-07-12T05:50:55;0.97;;;0.70;;
6378;SDS011;3222;48.858;10.128;2022-07-12T05:53:41;0.80;;;0.80;;
6378;SDS011;3222;48.858;10.128;2022-07-12T05:56:07;0.93;;;0.73;;
6378;SDS011;3222;48.858;10.128;2022-07-12T05:58:32;0.70;;;0.70;;
6378;SDS011;3222;48.858;10.128;2022-07-12T06:00:58;1.57;;;1.13;;
6378;SDS011;3222;48.858;10.128;2022-07-12T06:03:24;0.80;;;0.80;;
6378;SDS011;3222;48.858;10.128;2022-07-12T06:05:49;0.90;;;0.90;;
6378;SDS011;3222;48.858;10.128;2022-07-12T06:08:15;1.10;;;1.10;;
6378;SDS011;3222;48.858;10.128;2022-07-12T06:10:41;1.30;;;1.20;;
6378;SDS011;3222;48.858;10.128;2022-07-12T06:13:07;1.70;;;1.30;;
6378;SDS011;3222;48.858;10.128;2022-07-12T06:15:34;1.53;;;1.43;;
6378;SDS011;3222;48.858;10.128;2022-07-12T06:18:01;1.73;;;1.50;;
6378;SDS011;3222;48.858;10.128;2022-07-12T06:20:27;1.70;;;1.60;;
6378;SDS011;3222;48.858;10.128;2022-07-12T06:22:53;1.80;;;1.70;;
6378;SDS011;3222;48.858;10.128;2022-07-12T06:25:20;2.60;;;1.60;;
6378;SDS011;3222;48.858;10.128;2022-07-12T06:27:46;1.87;;;1.77;;
6378;SDS011;3222;48.858;10.128;2022-07-12T06:30:14;1.70;;;1.60;;
6378;SDS011;3222;48.858;10.128;2022-07-12T06:32:47;1.57;;;1.47;;
6378;SDS011;3222;48.858;10.128;2022-07-12T06:35:13;1.53;;;1.43;;
6378;SDS011;3222;48.858;10.128;2022-07-12T06:37:40;1.67;;;1.57;;
6378;SDS011;3222;48.858;10.128;2022-07-12T06:40:07;1.63;;;1.27;;
6378;SDS011;3222;48.858;10.128;2022-07-12T06:42:33;1.40;;;1.30;;
6378;SDS011;3222;48.858;10.128;2022-07-12T06:44:59;1.20;;;1.20;;
6378;SDS011;3222;48.858;10.128;2022-07-12T06:47:25;2.73;;;1.20;;
6378;SDS011;3222;48.858;10.128;2022-07-12T06:49:52;1.03;;;1.03;;
6378;SDS011;3222;48.858;10.128;2022-07-12T06:52:18;1.30;;;1.20;;
6378;SDS011;3222;48.858;10.128;2022-07-12T06:54:44;1.20;;;1.13;;
6378;SDS011;3222;48.858;10.128;2022-07-12T06:57:09;1.50;;;1.40;;
6378;SDS011;3222;48.858;10.128;2022-07-12T06:59:35;1.23;;;1.20;;
6378;SDS011;3222;48.858;10.128;2022-07-12T07:02:01;1.47;;;1.37;;
6378;SDS011;3222;48.858;10.128;2022-07-12T07:04:27;1.40;;;1.40;;
6378;SDS011;3222;48.858;10.128;2022-07-12T07:06:53;2.33;;;1.70;;
6378;SDS011;3222;48.858;10.128;2022-07-12T07:09:19;1.13;;;1.07;;
6378;SDS011;3222;48.858;10.128;2022-07-12T07:11:45;0.77;;;0.77;;
6378;SDS011;3222;48.858;10.128;2022-07-12T07:14:11;0.70;;;0.70;;
6378;SDS011;3222;48.858;10.128;2022-07-12T07:16:36;0.60;;;0.60;;
6378;SDS011;3222;48.858;10.128;2022-07-12T07:19:02;0.60;;;0.60;;
6378;SDS011;3222;48.858;10.128;2022-07-12T07:21:28;1.00;;;0.90;;
6378;SDS011;3222;48.858;10.128;2022-07-12T07:23:54;0.60;;;0.60;;
6378;SDS011;3222;48.858;10.128;2022-07-12T07:26:20;0.77;;;0.77;;
6378;SDS011;3222;48.858;10.128;2022-07-12T07:28:47;0.60;;;0.60;;
6378;SDS011;3222;48.858;10.128;2022-07-12T07:31:35;0.67;;;0.67;;
6378;SDS011;3222;48.858;10.128;2022-07-12T07:34:02;0.97;;;0.80;;
6378;SDS011;3222;48.858;10.128;2022-07-12T07:36:28;0.60;;;0.60;;
6378;SDS011;3222;48.858;10.128;2022-07-12T07:38:54;0.87;;;0.87;;
6378;SDS011;3222;48.858;10.128;2022-07-12T07:41:20;0.97;;;0.97;;
6378;SDS011;3222;48.858;10.128;2022-07-12T07:43:45;0.90;;;0.90;;
6378;SDS011;3222;48.858;10.128;2022-07-12T07:46:11;0.80;;;0.80;;
6378;SDS011;3222;48.858;10.128;2022-07-12T07:48:38;0.80;;;0.80;;
6378;SDS011;3222;48.858;10.128;2022-07-12T07:51:03;0.83;;;0.63;;
6378;SDS011;3222;48.858;10.128;2022-07-12T07:53:29;1.27;;;0.83;;
6378;SDS011;3222;48.858;10.128;2022-07-12T07:55:55;1.40;;;0.77;;
6378;SDS011;3222;48.858;10.128;2022-07-12T07:58:20;1.13;;;0.67;;
6378;SDS011;3222;48.858;10.128;2022-07-12T08:00:49;0.60;;;0.60;;
6378;SDS011;3222;48.858;10.128;2022-07-12T08:03:15;0.60;;;0.60;;
6378;SDS011;3222;48.858;10.128;2022-07-12T08:05:41;2.70;;;0.87;;
6378;SDS011;3222;48.858;10.128;2022-07-12T08:08:07;0.60;;;0.60;;
6378;SDS011;3222;48.858;10.128;2022-07-12T08:10:33;0.60;;;0.60;;
6378;SDS011;3222;48.858;10.128;2022-07-12T08:12:59;0.60;;;0.60;;
6378;SDS011;3222;48.858;10.128;2022-07-12T08:15:25;0.70;;;0.70;;
6378;SDS011;3222;48.858;10.128;2022-07-12T08:17:51;0.50;;;0.50;;
6378;SDS011;3222;48.858;10.128;2022-07-12T08:20:17;0.50;;;0.50;;
6378;SDS011;3222;48.858;10.128;2022-07-12T08:22:44;0.53;;;0.53;;
6378;SDS011;3222;48.858;10.128;2022-07-12T08:25:10;0.67;;;0.67;;
6378;SDS011;3222;48.858;10.128;2022-07-12T08:27:39;0.70;;;0.70;;
6378;SDS011;3222;48.858;10.128;2022-07-12T08:30:05;0.70;;;0.70;;
6378;SDS011;3222;48.858;10.128;2022-07-12T08:32:32;0.90;;;0.90;;
6378;SDS011;3222;48.858;10.128;2022-07-12T08:34:58;0.60;;;0.60;;
6378;SDS011;3222;48.858;10.128;2022-07-12T08:37:23;0.70;;;0.70;;
6378;SDS011;3222;48.858;10.128;2022-07-12T08:39:49;0.87;;;0.60;;
6378;SDS011;3222;48.858;10.128;2022-07-12T08:42:16;0.60;;;0.60;;
6378;SDS011;3222;48.858;10.128;2022-07-12T08:44:44;0.60;;;0.60;;
6378;SDS011;3222;48.858;10.128;2022-07-12T08:47:18;0.60;;;0.60;;
6378;SDS011;3222;48.858;10.128;2022-07-12T08:50:04;0.50;;;0.50;;
6378;SDS011;3222;48.858;10.128;2022-07-12T08:52:38;0.53;;;0.53;;
6378;SDS011;3222;48.858;10.128;2022-07-12T08:55:16;0.50;;;0.50;;
6378;SDS011;3222;48.858;10.128;2022-07-12T08:57:43;0.67;;;0.60;;
6378;SDS011;3222;48.858;10.128;2022-07-12T09:00:09;0.63;;;0.63;;
6378;SDS011;3222;48.858;10.128;2022-07-12T09:03:10;0.60;;;0.60;;
6378;SDS011;3222;48.858;10.128;2022-07-12T09:05:30;0.40;;;0.40;;
6378;SDS011;3222;48.858;10.128;2022-07-12T09:08:03;0.50;;;0.50;;
6378;SDS011;3222;48.858;10.128;2022-07-12T09:10:29;0.50;;;0.50;;
6378;SDS011;3222;48.858;10.128;2022-07-12T09:12:54;0.50;;;0.50;;
6378;SDS011;3222;48.858;10.128;2022-07-12T09:15:21;0.50;;;0.50;;
6378;SDS011;3222;48.858;10.128;2022-07-12T09:20:20;0.57;;;0.53;;
6378;SDS011;3222;48.858;10.128;2022-07-12T09:22:53;0.50;;;0.50;;
6378;SDS011;3222;48.858;10.128;2022-07-12T09:25:20;0.40;;;0.40;;
6378;SDS011;3222;48.858;10.128;2022-07-12T09:27:55;0.50;;;0.50;;
6378;SDS011;3222;48.858;10.128;2022-07-12T09:30:23;0.57;;;0.57;;
6378;SDS011;3222;48.858;10.128;2022-07-12T09:32:54;0.53;;;0.50;;
6378;SDS011;3222;48.858;10.128;2022-07-12T09:35:43;0.50;;;0.50;;
6378;SDS011;3222;48.858;10.128;2022-07-12T09:38:35;0.53;;;0.53;;
6378;SDS011;3222;48.858;10.128;2022-07-12T09:41:02;0.67;;;0.57;;
6378;SDS011;3222;48.858;10.128;2022-07-12T09:43:32;0.60;;;0.60;;
6378;SDS011;3222;48.858;10.128;2022-07-12T09:45:59;0.80;;;0.50;;
6378;SDS011;3222;48.858;10.128;2022-07-12T09:48:26;0.50;;;0.50;;
6378;SDS011;3222;48.858;10.128;2022-07-12T09:50:58;0.47;;;0.47;;
6378;SDS011;3222;48.858;10.128;2022-07-12T09:54:01;0.60;;;0.50;;
6378;SDS011;3222;48.858;10.128;2022-07-12T09:56:19;0.50;;;0.50;;
6378;SDS011;3222;48.858;10.128;2022-07-12T09:58:56;0.40;;;0.40;;
6378;SDS011;3222;48.858;10.128;2022-07-12T10:01:22;0.50;;;0.50;;
6378;SDS011;3222;48.858;10.128;2022-07-12T10:03:50;0.50;;;0.50;;
6378;SDS011;3222;48.858;10.128;2022-07-12T10:08:50;0.57;;;0.50;;
6378;SDS011;3222;48.858;10.128;2022-07-12T10:11:16;0.50;;;0.50;;
6378;SDS011;3222;48.858;10.128;2022-07-12T10:13:44;1.93;;;0.50;;
6378;SDS011;3222;48.858;10.128;2022-07-12T10:16:10;0.50;;;0.50;;
6378;SDS011;3222;48.858;10.128;2022-07-12T10:18:39;0.63;;;0.63;;
6378;SDS011;3222;48.858;10.128;2022-07-12T10:21:16;0.50;;;0.50;;
6378;SDS011;3222;48.858;10.128;2022-07-12T10:23:44;0.40;;;0.40;;
6378;SDS011;3222;48.858;10.128;2022-07-12T10:31:29;0.50;;;0.50;;
6378;SDS011;3222;48.858;10.128;2022-07-12T10:34:11;0.57;;;0.57;;
6378;SDS011;3222;48.858;10.128;2022-07-12T10:39:20;0.50;;;0.50;;
6378;SDS011;3222;48.858;10.128;2022-07-12T10:44:34;1.33;;;0.60;;
6378;SDS011;3222;48.858;10.128;2022-07-12T10:47:05;0.40;;;0.40;;
6378;SDS011;3222;48.858;10.128;2022-07-12T10:49:32;0.97;;;0.60;;
6378;SDS011;3222;48.858;10.128;2022-07-12T10:54:46;0.57;;;0.50;;
6378;SDS011;3222;48.858;10.128;2022-07-12T10:57:39;0.50;;;0.50;;
6378;SDS011;3222;48.858;10.128;2022-07-12T11:00:08;0.43;;;0.43;;
6378;SDS011;3222;48.858;10.128;2022-07-12T11:02:35;0.50;;;0.50;;
6378;SDS011;3222;48.858;10.128;2022-07-12T11:05:02;0.63;;;0.63;;
6378;SDS011;3222;48.858;10.128;2022-07-12T11:07:28;0.57;;;0.57;;
6378;SDS011;3222;48.858;10.128;2022-07-12T11:09:55;0.57;;;0.57;;
6378;SDS011;3222;48.858;10.128;2022-07-12T11:12:28;2.37;;;0.77;;
6378;SDS011;3222;48.858;10.128;2022-07-12T11:15:00;0.50;;;0.50;;
6378;SDS011;3222;48.858;10.128;2022-07-12T11:17:28;0.50;;;0.50;;
6378;SDS011;3222;48.858;10.128;2022-07-12T11:20:11;0.40;;;0.40;;
6378;SDS011;3222;48.858;10.128;2022-07-12T11:22:39;0.60;;;0.60;;
6378;SDS011;3222;48.858;10.128;2022-07-12T11:25:10;0.50;;;0.50;;
6378;SDS011;3222;48.858;10.128;2022-07-12T11:27:37;0.50;;;0.50;;
6378;SDS011;3222;48.858;10.128;2022-07-12T11:30:04;0.50;;;0.50;;
6378;SDS011;3222;48.858;10.128;2022-07-12T11:32:34;0.50;;;0.50;;
6378;SDS011;3222;48.858;10.128;2022-07-12T11:35:17;0.50;;;0.50;;
6378;SDS011;3222;48.858;10.128;2022-07-12T11:37:47;0.50;;;0.50;;
6378;SDS011;3222;48.858;10.128;2022-07-12T11:40:21;0.50;;;0.50;;
6378;SDS011;3222;48.858;10.128;2022-07-12T11:42:54;0.67;;;0.40;;
6378;SDS011;3222;48.858;10.128;2022-07-12T11:45:28;0.50;;;0.50;;
6378;SDS011;3222;48.858;10.128;2022-07-12T11:48:01;0.50;;;0.50;;
6378;SDS011;3222;48.858;10.128;2022-07-12T11:50:29;0.70;;;0.63;;
6378;SDS011;3222;48.858;10.128;2022-07-12T11:52:55;0.60;;;0.60;;
6378;SDS011;3222;48.858;10.128;2022-07-12T11:55:21;0.60;;;0.60;;
6378;SDS011;3222;48.858;10.128;2022-07-12T11:57:48;0.57;;;0.57;;
6378;SDS011;3222;48.858;10.128;2022-07-12T12:00:15;0.50;;;0.50;;
6378;SDS011;3222;48.858;10.128;2022-07-12T12:02:51;0.40;;;0.40;;
6378;SDS011;3222;48.858;10.128;2022-07-12T12:05:18;0.60;;;0.40;;
6378;SDS011;3222;48.858;10.128;2022-07-12T12:07:45;0.43;;;0.43;;
6378;SDS011;3222;48.858;10.128;2022-07-12T12:10:11;0.50;;;0.50;;
6378;SDS011;3222;48.858;10.128;2022-07-12T12:15:13;0.50;;;0.50;;
6378;SDS011;3222;48.858;10.128;2022-07-12T12:20:19;0.50;;;0.50;;
6378;SDS011;3222;48.858;10.128;2022-07-12T12:22:47;0.50;;;0.50;;
6378;SDS011;3222;48.858;10.128;2022-07-12T12:25:21;0.40;;;0.40;;
6378;SDS011;3222;48.858;10.128;2022-07-12T12:27:48;0.40;;;0.40;;
6378;SDS011;3222;48.858;10.128;2022-07-12T12:30:18;0.50;;;0.50;;
6378;SDS011;3222;48.858;10.128;2022-07-12T12:35:14;0.50;;;0.50;;
6378;SDS011;3222;48.858;10.128;2022-07-12T12:37:48;2.80;;;0.50;;
6378;SDS011;3222;48.858;10.128;2022-07-12T12:40:21;0.50;;;0.50;;
6378;SDS011;3222;48.858;10.128;2022-07-12T12:42:49;0.45;;;0.45;;
6378;SDS011;3222;48.858;10.128;2022-07-12T12:45:24;0.50;;;0.50;;
6378;SDS011;3222;48.858;10.128;2022-07-12T12:53:06;0.57;;;0.57;;
6378;SDS011;3222;48.858;10.128;2022-07-12T12:55:40;0.77;;;0.77;;
6378;SDS011;3222;48.858;10.128;2022-07-12T12:58:07;0.50;;;0.50;;
6378;SDS011;3222;48.858;10.128;2022-07-12T13:00:35;0.40;;;0.40;;
6378;SDS011;3222;48.858;10.128;2022-07-12T13:03:04;0.55;;;0.55;;
6378;SDS011;3222;48.858;10.128;2022-07-12T13:05:34;0.50;;;0.50;;
6378;SDS011;3222;48.858;10.128;2022-07-12T13:08:00;0.45;;;0.40;;
6378;SDS011;3222;48.858;10.128;2022-07-12T13:10:27;0.85;;;0.40;;
6378;SDS011;3222;48.858;10.128;2022-07-12T13:12:54;0.40;;;0.40;;
6378;SDS011;3222;48.858;10.128;2022-07-12T13:15:20;0.40;;;0.40;;
6378;SDS011;3222;48.858;10.128;2022-07-12T13:17:47;0.52;;;0.43;;
6378;SDS011;3222;48.858;10.128;2022-07-12T13:20:13;2.20;;;0.52;;
6378;SDS011;3222;48.858;10.128;2022-07-12T13:22:40;0.30;;;0.30;;
6378;SDS011;3222;48.858;10.128;2022-07-12T13:25:08;0.70;;;0.70;;
6378;SDS011;3222;48.858;10.128;2022-07-12T13:27:34;0.50;;;0.50;;
6378;SDS011;3222;48.858;10.128;2022-07-12T13:30:01;0.50;;;0.50;;
6378;SDS011;3222;48.858;10.128;2022-07-12T13:32:27;0.40;;;0.40;;
6378;SDS011;3222;48.858;10.128;2022-07-12T13:34:53;2.33;;;0.60;;
6378;SDS011;3222;48.858;10.128;2022-07-12T13:37:19;0.40;;;0.40;;
6378;SDS011;3222;48.858;10.128;2022-07-12T13:39:45;0.40;;;0.40;;
6378;SDS011;3222;48.858;10.128;2022-07-12T13:42:29;1.30;;;0.40;;
6378;SDS011;3222;48.858;10.128;2022-07-12T13:44:55;0.40;;;0.40;;
6378;SDS011;3222;48.858;10.128;2022-07-12T13:47:21;0.80;;;0.40;;
6378;SDS011;3222;48.858;10.128;2022-07-12T13:49:49;0.40;;;0.40;;
6378;SDS011;3222;48.858;10.128;2022-07-12T13:52:15;0.60;;;0.60;;
6378;SDS011;3222;48.858;10.128;2022-07-12T13:54:42;0.77;;;0.60;;
6378;SDS011;3222;48.858;10.128;2022-07-12T13:57:08;0.50;;;0.50;;
6378;SDS011;3222;48.858;10.128;2022-07-12T13:59:35;0.30;;;0.30;;
6378;SDS011;3222;48.858;10.128;2022-07-12T14:02:02;0.50;;;0.50;;
6378;SDS011;3222;48.858;10.128;2022-07-12T14:04:29;0.50;;;0.50;;
6378;SDS011;3222;48.858;10.128;2022-07-12T14:06:55;0.50;;;0.50;;
6378;SDS011;3222;48.858;10.128;2022-07-12T14:09:21;0.40;;;0.40;;
6378;SDS011;3222;48.858;10.128;2022-07-12T14:11:47;1.27;;;0.47;;
6378;SDS011;3222;48.858;10.128;2022-07-12T14:14:12;0.40;;;0.40;;
6378;SDS011;3222;48.858;10.128;2022-07-12T14:16:38;2.50;;;1.13;;
6378;SDS011;3222;48.858;10.128;2022-07-12T14:19:04;0.47;;;0.47;;
6378;SDS011;3222;48.858;10.128;2022-07-12T14:21:30;0.40;;;0.40;;
6378;SDS011;3222;48.858;10.128;2022-07-12T14:23:56;0.40;;;0.40;;
6378;SDS011;3222;48.858;10.128;2022-07-12T14:26:28;0.60;;;0.60;;
6378;SDS011;3222;48.858;10.128;2022-07-12T14:28:54;0.63;;;0.63;;
6378;SDS011;3222;48.858;10.128;2022-07-12T14:31:20;0.63;;;0.63;;
6378;SDS011;3222;48.858;10.128;2022-07-12T14:33:46;0.52;;;0.52;;
6378;SDS011;3222;48.858;10.128;2022-07-12T14:36:12;0.50;;;0.50;;
6378;SDS011;3222;48.858;10.128;2022-07-12T14:38:38;0.50;;;0.50;;
6378;SDS011;3222;48.858;10.128;2022-07-12T14:41:03;0.40;;;0.40;;
6378;SDS011;3222;48.858;10.128;2022-07-12T14:43:29;0.40;;;0.40;;
6378;SDS011;3222;48.858;10.128;2022-07-12T14:45:55;0.50;;;0.50;;
6378;SDS011;3222;48.858;10.128;2022-07-12T14:48:21;0.90;;;0.47;;
6378;SDS011;3222;48.858;10.128;2022-07-12T14:50:46;0.60;;;0.60;;
6378;SDS011;3222;48.858;10.128;2022-07-12T14:53:12;0.40;;;0.40;;
6378;SDS011;3222;48.858;10.128;2022-07-12T14:55:38;0.47;;;0.47;;
6378;SDS011;3222;48.858;10.128;2022-07-12T14:58:05;2.00;;;0.50;;
6378;SDS011;3222;48.858;10.128;2022-07-12T15:00:34;0.50;;;0.50;;
6378;SDS011;3222;48.858;10.128;2022-07-12T15:03:00;0.55;;;0.55;;
6378;SDS011;3222;48.858;10.128;2022-07-12T15:05:26;0.60;;;0.60;;
6378;SDS011;3222;48.858;10.128;2022-07-12T15:07:52;0.30;;;0.30;;
6378;SDS011;3222;48.858;10.128;2022-07-12T15:10:19;0.40;;;0.40;;
6378;SDS011;3222;48.858;10.128;2022-07-12T15:12:44;0.40;;;0.40;;
6378;SDS011;3222;48.858;10.128;2022-07-12T15:15:11;0.47;;;0.40;;
6378;SDS011;3222;48.858;10.128;2022-07-12T15:17:37;0.65;;;0.50;;
6378;SDS011;3222;48.858;10.128;2022-07-12T15:20:03;1.17;;;0.57;;
6378;SDS011;3222;48.858;10.128;2022-07-12T15:22:30;0.40;;;0.40;;
6378;SDS011;3222;48.858;10.128;2022-07-12T15:24:55;1.15;;;0.55;;
6378;SDS011;3222;48.858;10.128;2022-07-12T15:27:21;0.77;;;0.50;;
6378;SDS011;3222;48.858;10.128;2022-07-12T15:29:48;0.40;;;0.40;;
6378;SDS011;3222;48.858;10.128;2022-07-12T15:32:16;0.43;;;0.43;;
6378;SDS011;3222;48.858;10.128;2022-07-12T15:34:42;0.68;;;0.43;;